Guilford Center, Vermont
Current Conditions -  °F | °C
As of 5:15 AM on Saturday 22 Nov 2014 (Local Time) from KEEN Reporting Station
Clear Clear  
Wind Chill:   Ceiling: Unl
Heat Index: 14°   Visibility: 10mi
Dew Point: 10°   Wind: 5mph
Humidity: 86%   Direction: 200°SSW
Pressure: 30.37"   Gusts: NA
Location:  42.8513°N, 72.6568°W
Report Text: KEEN 221015Z AUTO 20004KT 10SM CLR M10/M12 A3037 RMK AO1
Loading
Personal Weather Stations






























Interactive Weather Map New forecast layout! Learn more

10-Day Weather Forecast

Advertisements
Track Severe Weather on mobile